createdAt,value
2022-08-07T00:01:44.686Z,13.40
2022-08-07T00:04:03.502Z,13.50
2022-08-07T00:06:33.654Z,13.20
2022-08-07T00:09:17.151Z,13.60
2022-08-07T00:11:55.303Z,13.40
2022-08-07T00:14:31.531Z,13.70
2022-08-07T00:17:03.083Z,13.40
2022-08-07T00:19:59.954Z,13.40
2022-08-07T00:22:34.474Z,13.30
2022-08-07T00:25:11.114Z,13.30
2022-08-07T00:27:53.534Z,13.10
2022-08-07T00:30:28.044Z,13.10
2022-08-07T00:32:59.987Z,13.20
2022-08-07T00:35:29.966Z,13.20
2022-08-07T00:37:58.313Z,13.00
2022-08-07T00:40:39.999Z,13.10
2022-08-07T00:44:01.747Z,13.00
2022-08-07T00:45:59.088Z,13.30
2022-08-07T00:48:32.052Z,13.10
2022-08-07T00:51:01.011Z,12.90
2022-08-07T00:53:38.455Z,13.00
2022-08-07T00:56:14.015Z,12.80
2022-08-07T00:58:47.114Z,12.90
2022-08-07T01:04:24.565Z,12.70
2022-08-07T01:07:04.779Z,12.60
2022-08-07T01:10:03.884Z,12.90
2022-08-07T01:15:35.781Z,12.80
2022-08-07T01:18:10.572Z,12.70
2022-08-07T01:26:29.722Z,12.40
2022-08-07T01:29:22.133Z,12.50
2022-08-07T01:41:06.278Z,12.60
2022-08-07T01:43:34.683Z,12.70
2022-08-07T01:46:06.031Z,12.80
2022-08-07T01:48:35.651Z,12.60
2022-08-07T01:52:02.623Z,12.60
2022-08-07T01:54:12.660Z,12.80
2022-08-07T01:56:56.407Z,12.80
2022-08-07T01:59:33.904Z,12.40
2022-08-07T02:02:10.338Z,12.30
2022-08-07T02:04:56.222Z,12.30
2022-08-07T02:07:44.667Z,12.50
2022-08-07T02:10:19.300Z,12.40
2022-08-07T02:12:50.005Z,12.50
2022-08-07T02:15:23.675Z,12.40
2022-08-07T02:17:54.880Z,12.40
2022-08-07T02:20:24.688Z,12.70
2022-08-07T02:22:57.547Z,12.20
2022-08-07T02:26:10.205Z,12.30
2022-08-07T02:28:24.741Z,12.60
2022-08-07T02:30:53.392Z,12.20
2022-08-07T02:33:21.444Z,12.20
2022-08-07T02:36:28.519Z,12.30
2022-08-07T02:38:38.648Z,12.40
2022-08-07T02:41:06.323Z,12.00
2022-08-07T02:43:39.497Z,12.20
2022-08-07T02:46:07.432Z,12.20
2022-08-07T02:48:34.684Z,12.10
2022-08-07T03:36:57.986Z,11.80
2022-08-07T03:42:17.268Z,12.00
2022-08-07T03:58:08.839Z,11.60
2022-08-07T04:02:59.627Z,11.60
2022-08-07T04:05:41.088Z,11.60
2022-08-07T04:15:48.938Z,11.60
2022-08-07T04:18:57.335Z,11.70
2022-08-07T05:41:12.078Z,12.50
2022-08-07T07:41:21.390Z,18.90
2022-08-07T07:46:55.835Z,18.80
2022-08-07T07:50:29.563Z,19.40
